»·PEaware :: DAL128 KSEA-KLAX

DAL128 :: KSEA-KLAX

FLIGHT INFORMATION

Flight Status: Arrived
Operator:
Delta Air Lines
More flights by this operator :: More flights under this callsign
Pilot: Joshua A. (20601)
Aircraft: BOEING 737-800
(B738)
More flights by this aircraft type
Origin: KSEA Seattle-Tacoma Intl
United States
Destination: KLAX Los Angeles Intl
United States
More flights between these airports :: More routes between these airports
Route: +SUMMA1 LKV FRA REBRG IRNMN2
File this flight plan on PilotEdge
Remarks:
Altitude:
(Current/Filed)
37,000ft
Speed:
(Current/Filed)
450kts
Departed: 26-Nov-18 10:02 AM
Arrived: 26-Nov-18 12:09 PM
Distance/Time
Traveled:
829nm/2:07
Distance/Time
To Go:
Arrived

Flight Plot

Page will automatically refresh every two minutes.

Flight plan parsing failed; only flown route is shown


Map Options




Map Legend


Flown Route
Filed Route
Departure Airport
Arrival Airport
Navaid (VOR, NDB)
Fix

Horizontal Profiles

Position Reports

Time Latitude Longitude Heading Altitude Ground
Speed
26-Nov-18 09:15 47.438207 -122.301373 349 434ft 0kts
26-Nov-18 09:16 47.438207 -122.301373 349 434ft 0kts
26-Nov-18 09:17 47.438207 -122.301373 349 434ft 0kts
26-Nov-18 09:18 47.438207 -122.301373 349 434ft 0kts
26-Nov-18 09:19 47.438207 -122.301373 349 434ft 0kts
26-Nov-18 09:20 47.438207 -122.301373 349 434ft 0kts
26-Nov-18 09:21 47.438207 -122.301373 349 434ft 0kts
26-Nov-18 09:22 47.438207 -122.301373 349 434ft 0kts
26-Nov-18 09:23 47.438207 -122.301373 349 434ft 0kts
26-Nov-18 09:24 47.438207 -122.301373 349 434ft 0kts
26-Nov-18 09:25 47.438207 -122.301373 349 434ft 0kts
26-Nov-18 09:26 47.438207 -122.301373 349 434ft 0kts
26-Nov-18 09:27 47.438207 -122.301373 349 434ft 0kts
26-Nov-18 09:28 47.438207 -122.301373 349 434ft 0kts
26-Nov-18 09:29 47.438207 -122.301373 349 434ft 0kts
26-Nov-18 09:30 47.438207 -122.301373 349 434ft 0kts
26-Nov-18 09:31 47.438207 -122.301373 349 434ft 0kts
26-Nov-18 09:32 47.438207 -122.301373 349 434ft 0kts
26-Nov-18 09:33 47.438207 -122.301373 349 434ft 0kts
26-Nov-18 09:34 47.438207 -122.301373 349 434ft 0kts
26-Nov-18 09:35 47.438207 -122.301373 349 434ft 0kts
26-Nov-18 09:36 47.438207 -122.301373 349 434ft 0kts
26-Nov-18 09:37 47.438207 -122.301373 349 434ft 0kts
26-Nov-18 09:38 47.438207 -122.301373 349 434ft 0kts
26-Nov-18 09:39 47.438207 -122.301373 349 434ft 0kts
26-Nov-18 09:40 47.438207 -122.301373 349 434ft 0kts
26-Nov-18 09:41 47.438207 -122.301373 349 434ft 0kts
26-Nov-18 09:42 47.438207 -122.301373 349 434ft 0kts
26-Nov-18 09:43 47.438207 -122.301373 349 434ft 0kts
26-Nov-18 09:44 47.438207 -122.301373 349 434ft 0kts
26-Nov-18 09:45 47.438049 -122.301327 348 434ft 2kts
26-Nov-18 09:46 47.437600 -122.300997 280 434ft 2kts
26-Nov-18 09:47 47.437615 -122.300764 256 434ft 0kts
26-Nov-18 09:48 47.437615 -122.300764 256 434ft 0kts
26-Nov-18 09:49 47.437615 -122.300764 256 434ft 0kts
26-Nov-18 09:50 47.437615 -122.300764 256 434ft 0kts
26-Nov-18 09:51 47.437615 -122.300764 256 434ft 0kts
26-Nov-18 09:52 47.437615 -122.300764 256 434ft 0kts
26-Nov-18 09:53 47.437453 -122.301719 250 434ft 4kts
26-Nov-18 09:54 47.437210 -122.304329 268 434ft 6kts
26-Nov-18 09:55 47.437206 -122.304779 270 434ft 4kts
26-Nov-18 09:56 47.439079 -122.306377 1 434ft 21kts
26-Nov-18 09:57 47.444071 -122.306347 359 434ft 12kts
26-Nov-18 09:58 47.447851 -122.306284 1 434ft 11kts
26-Nov-18 09:59 47.451077 -122.306272 356 434ft 20kts
26-Nov-18 10:00 47.457425 -122.306214 1 434ft 20kts
26-Nov-18 10:01 47.461591 -122.306186 359 434ft 10kts
26-Nov-18 10:02 47.463635 -122.308194 269 434ft 14kts
26-Nov-18 10:03 47.463630 -122.309366 269 434ft 0kts
26-Nov-18 10:04 47.463001 -122.310989 181 434ft 9kts
26-Nov-18 10:05 47.429143 -122.311146 179 951ft 191kts
26-Nov-18 10:06 47.374431 -122.311139 179 3480ft 218kts
26-Nov-18 10:07 47.312740 -122.310868 179 6391ft 230kts
26-Nov-18 10:08 47.242243 -122.277398 148 9004ft 248kts
26-Nov-18 10:09 47.195602 -122.232025 148 10326ft 247kts
26-Nov-18 10:10 47.132725 -122.188168 165 13120ft 262kts
26-Nov-18 10:11 47.058736 -122.158414 169 15135ft 306kts
26-Nov-18 10:12 46.969096 -122.123724 168 16852ft 361kts
26-Nov-18 10:13 46.874426 -122.087052 168 19393ft 380kts
26-Nov-18 10:14 46.771955 -122.047494 169 21908ft 396kts
26-Nov-18 10:15 46.664502 -122.006193 169 22982ft 405kts
26-Nov-18 10:16 46.555840 -121.964460 169 23302ft 410kts
26-Nov-18 10:17 46.445119 -121.922073 169 25643ft 422kts
26-Nov-18 10:18 46.330030 -121.878229 169 27673ft 437kts
26-Nov-18 10:19 46.211243 -121.833134 169 29658ft 448kts
26-Nov-18 10:20 46.091798 -121.787947 169 31993ft 442kts
26-Nov-18 10:21 45.974127 -121.743623 169 34032ft 438kts
26-Nov-18 10:22 45.863491 -121.702080 169 35641ft 435kts
26-Nov-18 10:23 45.747082 -121.658547 170 37056ft 434kts
26-Nov-18 10:24 45.627488 -121.614051 170 37252ft 457kts
26-Nov-18 10:25 45.501249 -121.567179 170 37242ft 478kts
26-Nov-18 10:26 45.373358 -121.519863 170 37244ft 475kts
26-Nov-18 10:27 45.246688 -121.473226 170 37243ft 472kts
26-Nov-18 10:28 45.120263 -121.426873 170 37188ft 472kts
26-Nov-18 10:29 44.993063 -121.380429 170 37190ft 472kts
26-Nov-18 10:30 44.870330 -121.335776 170 37175ft 471kts
26-Nov-18 10:31 44.745018 -121.290395 170 37192ft 471kts
26-Nov-18 10:32 44.618372 -121.244694 170 37180ft 471kts
26-Nov-18 10:33 44.491870 -121.199265 170 37181ft 471kts
26-Nov-18 10:34 44.365373 -121.154033 170 37182ft 471kts
26-Nov-18 10:35 44.238912 -121.109005 171 37183ft 471kts
26-Nov-18 10:36 44.114842 -121.065016 171 37184ft 470kts
26-Nov-18 10:37 43.989926 -121.020916 171 37185ft 470kts
26-Nov-18 10:38 43.866373 -120.977449 171 37167ft 464kts
26-Nov-18 10:39 43.739984 -120.933250 171 37182ft 471kts
26-Nov-18 10:40 43.613521 -120.889173 171 37184ft 470kts
26-Nov-18 10:41 43.486794 -120.845204 171 37184ft 470kts
26-Nov-18 10:42 43.360147 -120.801459 170 37185ft 471kts
26-Nov-18 10:43 43.233853 -120.758030 170 37186ft 471kts
26-Nov-18 10:44 43.107018 -120.714610 170 37187ft 471kts
26-Nov-18 10:45 42.980400 -120.671462 170 37192ft 471kts
26-Nov-18 10:46 42.855069 -120.628945 170 37291ft 472kts
26-Nov-18 10:47 42.728125 -120.586075 170 37294ft 472kts
26-Nov-18 10:48 42.601138 -120.543388 170 37295ft 472kts
26-Nov-18 10:49 42.473462 -120.502677 176 37291ft 468kts
26-Nov-18 10:50 42.345028 -120.481256 177 37296ft 468kts
26-Nov-18 10:51 42.215808 -120.459544 177 37297ft 468kts
26-Nov-18 10:52 42.086905 -120.437830 177 37297ft 469kts
26-Nov-18 10:53 41.957706 -120.416060 177 37298ft 470kts
26-Nov-18 10:54 41.830289 -120.394584 177 37295ft 470kts
26-Nov-18 10:55 41.700699 -120.372735 177 37295ft 471kts
26-Nov-18 10:56 41.571104 -120.350881 176 37295ft 471kts
26-Nov-18 10:57 41.442121 -120.329082 177 37289ft 471kts
26-Nov-18 10:58 41.312046 -120.307132 177 37290ft 472kts
26-Nov-18 10:59 41.182361 -120.285250 177 37290ft 472kts
26-Nov-18 11:00 41.052141 -120.263271 177 37291ft 473kts
26-Nov-18 11:01 40.922219 -120.241338 177 37351ft 473kts
26-Nov-18 11:02 40.799716 -120.220654 176 37342ft 474kts
26-Nov-18 11:03 40.669024 -120.198583 176 37343ft 474kts
26-Nov-18 11:04 40.538792 -120.176586 176 37344ft 474kts
26-Nov-18 11:05 40.408209 -120.154528 176 37344ft 475kts
26-Nov-18 11:06 40.277447 -120.132435 176 37346ft 476kts
26-Nov-18 11:07 40.146182 -120.110288 174 37344ft 477kts
26-Nov-18 11:08 40.014700 -120.088034 174 37348ft 478kts
26-Nov-18 11:09 39.885388 -120.066167 174 37319ft 478kts
26-Nov-18 11:10 39.755831 -120.044263 174 37316ft 478kts
26-Nov-18 11:11 39.624384 -120.022038 174 37317ft 478kts
26-Nov-18 11:12 39.492917 -119.999797 174 37328ft 470kts
26-Nov-18 11:13 39.362573 -119.977764 174 37333ft 479kts
26-Nov-18 11:14 39.230876 -119.955481 174 37347ft 478kts
26-Nov-18 11:15 39.099582 -119.933268 174 37348ft 478kts
26-Nov-18 11:16 38.968335 -119.911062 174 37338ft 478kts
26-Nov-18 11:17 38.840145 -119.889370 173 37316ft 478kts
26-Nov-18 11:18 38.708684 -119.867120 173 37317ft 478kts
26-Nov-18 11:19 38.577572 -119.844930 173 37314ft 478kts
26-Nov-18 11:20 38.447062 -119.822843 173 37322ft 476kts
26-Nov-18 11:21 38.315681 -119.800598 173 37320ft 477kts
26-Nov-18 11:22 38.184618 -119.778407 173 37321ft 477kts
26-Nov-18 11:23 38.053537 -119.756212 173 37322ft 477kts
26-Nov-18 11:24 37.922077 -119.733953 173 37323ft 477kts
26-Nov-18 11:25 37.793359 -119.712155 173 37317ft 477kts
26-Nov-18 11:26 37.662269 -119.689955 173 37318ft 477kts
26-Nov-18 11:27 37.531133 -119.667746 173 37347ft 477kts
26-Nov-18 11:28 37.400840 -119.645687 173 37350ft 478kts
26-Nov-18 11:29 37.269910 -119.623502 173 37240ft 476kts
26-Nov-18 11:30 37.138974 -119.601322 173 37268ft 477kts
26-Nov-18 11:31 37.007253 -119.596789 182 37267ft 475kts
26-Nov-18 11:32 36.877216 -119.599389 182 37263ft 475kts
26-Nov-18 11:33 36.745499 -119.601692 182 37263ft 475kts
26-Nov-18 11:34 36.613610 -119.603965 182 37264ft 475kts
26-Nov-18 11:35 36.481800 -119.606228 182 37265ft 475kts
26-Nov-18 11:36 36.350296 -119.608477 182 37266ft 475kts
26-Nov-18 11:37 36.218473 -119.610725 182 37267ft 475kts
26-Nov-18 11:38 36.086614 -119.612965 182 37268ft 475kts
26-Nov-18 11:39 35.955954 -119.623227 198 37282ft 470kts
26-Nov-18 11:40 35.834686 -119.669721 199 37263ft 470kts
26-Nov-18 11:41 35.709771 -119.716667 199 37237ft 470kts
26-Nov-18 11:42 35.584563 -119.753087 192 37240ft 463kts
26-Nov-18 11:43 35.458102 -119.783407 192 37237ft 466kts
26-Nov-18 11:44 35.331458 -119.813526 187 37224ft 462kts
26-Nov-18 11:45 35.223244 -119.760302 143 36222ft 426kts
26-Nov-18 11:46 35.128490 -119.674188 141 34061ft 426kts
26-Nov-18 11:47 35.033795 -119.586274 141 31928ft 433kts
26-Nov-18 11:48 34.937727 -119.497168 141 29768ft 439kts
26-Nov-18 11:49 34.856120 -119.423277 142 28003ft 440kts
26-Nov-18 11:50 34.763426 -119.340510 142 26108ft 429kts
26-Nov-18 11:51 34.683954 -119.270681 142 24434ft 424kts
26-Nov-18 11:52 34.589384 -119.188769 142 22460ft 411kts
26-Nov-18 11:53 34.499256 -119.109653 142 20570ft 397kts
26-Nov-18 11:54 34.411646 -119.032579 142 18729ft 385kts
26-Nov-18 11:55 34.326685 -118.958688 141 16600ft 373kts
26-Nov-18 11:56 34.246188 -118.885404 141 14807ft 359kts
26-Nov-18 11:57 34.169209 -118.814621 141 13067ft 338kts
26-Nov-18 11:58 34.103755 -118.744356 136 11653ft 309kts
26-Nov-18 11:59 34.042244 -118.676682 128 10278ft 297kts
26-Nov-18 12:00 34.023151 -118.591067 93 9084ft 281kts
26-Nov-18 12:01 34.014367 -118.501227 93 7773ft 252kts
26-Nov-18 12:02 34.015499 -118.424364 76 6568ft 231kts
26-Nov-18 12:03 34.028907 -118.350663 77 5290ft 229kts
26-Nov-18 12:04 34.040291 -118.288766 77 4202ft 227kts
26-Nov-18 12:05 34.053604 -118.216324 77 3087ft 221kts
26-Nov-18 12:06 34.021508 -118.169563 171 2995ft 221kts
26-Nov-18 12:07 33.969708 -118.174745 229 3066ft 194kts
26-Nov-18 12:08 33.966540 -118.235288 272 2787ft 186kts
26-Nov-18 12:09 33.963059 -118.296175 264 1714ft 176kts
26-Nov-18 12:10 33.957648 -118.348620 261 997ft 153kts
26-Nov-18 12:11 33.952717 -118.396766 262 222ft 143kts
26-Nov-18 12:12 33.949228 -118.419426 232 124ft 9kts
26-Nov-18 12:13 33.947333 -118.422321 198 121ft 0kts
26-Nov-18 12:14 33.946952 -118.421187 85 121ft 11kts
26-Nov-18 12:15 33.946480 -118.417838 106 123ft 10kts
26-Nov-18 12:16 33.946927 -118.412910 82 125ft 15kts
26-Nov-18 12:17 33.946984 -118.409122 172 126ft 8kts
26-Nov-18 12:18 33.945820 -118.408855 86 126ft 3kts
26-Nov-18 12:19 33.946033 -118.408280 60 126ft 1kts
26-Nov-18 12:20 33.946046 -118.408254 60 126ft 0kts
26-Nov-18 12:21 33.946046 -118.408253 60 126ft 0kts
26-Nov-18 12:22 33.946046 -118.408253 60 126ft 0kts
26-Nov-18 12:23 33.946046 -118.408253 60 126ft 0kts
26-Nov-18 12:24 33.946046 -118.408253 60 126ft 0kts
26-Nov-18 12:25 33.946046 -118.408253 60 126ft 0kts
26-Nov-18 12:26 33.946046 -118.408253 60 126ft 0kts

Navigation Log

Ident Type
Flight plan parsing failed, navigation log unavailable